sensor_id;sensor_type;location;lat;lon;timestamp;P1;durP1;ratioP1;P2;durP2;ratioP2
66384;SDS011;53426;55.872;37.462;2023-04-25T00:01:25;11.55;;;7.20;;
66384;SDS011;53426;55.872;37.462;2023-04-25T00:03:52;13.63;;;6.97;;
66384;SDS011;53426;55.872;37.462;2023-04-25T00:06:17;19.00;;;7.70;;
66384;SDS011;53426;55.872;37.462;2023-04-25T00:08:43;11.68;;;7.00;;
66384;SDS011;53426;55.872;37.462;2023-04-25T00:11:09;12.52;;;6.68;;
66384;SDS011;53426;55.872;37.462;2023-04-25T00:13:35;16.42;;;7.43;;
66384;SDS011;53426;55.872;37.462;2023-04-25T00:16:01;11.93;;;6.53;;
66384;SDS011;53426;55.872;37.462;2023-04-25T00:18:28;17.50;;;7.07;;
66384;SDS011;53426;55.872;37.462;2023-04-25T00:20:54;13.98;;;6.80;;
66384;SDS011;53426;55.872;37.462;2023-04-25T00:23:21;15.85;;;7.50;;
66384;SDS011;53426;55.872;37.462;2023-04-25T00:25:47;19.98;;;7.38;;
66384;SDS011;53426;55.872;37.462;2023-04-25T00:28:15;11.13;;;7.20;;
66384;SDS011;53426;55.872;37.462;2023-04-25T00:30:42;19.50;;;7.57;;
66384;SDS011;53426;55.872;37.462;2023-04-25T00:33:08;17.15;;;6.70;;
66384;SDS011;53426;55.872;37.462;2023-04-25T00:35:35;8.10;;;5.95;;
66384;SDS011;53426;55.872;37.462;2023-04-25T00:38:01;22.63;;;6.13;;
66384;SDS011;53426;55.872;37.462;2023-04-25T00:40:27;13.52;;;6.78;;
66384;SDS011;53426;55.872;37.462;2023-04-25T00:42:54;12.65;;;6.47;;
66384;SDS011;53426;55.872;37.462;2023-04-25T00:45:20;15.00;;;6.75;;
66384;SDS011;53426;55.872;37.462;2023-04-25T00:47:46;13.90;;;6.32;;
66384;SDS011;53426;55.872;37.462;2023-04-25T00:50:13;15.85;;;6.55;;
66384;SDS011;53426;55.872;37.462;2023-04-25T00:52:40;17.45;;;6.95;;
66384;SDS011;53426;55.872;37.462;2023-04-25T00:55:08;16.73;;;6.65;;
66384;SDS011;53426;55.872;37.462;2023-04-25T00:57:35;13.75;;;5.90;;
66384;SDS011;53426;55.872;37.462;2023-04-25T01:00:01;12.48;;;5.85;;
66384;SDS011;53426;55.872;37.462;2023-04-25T01:02:31;14.13;;;5.88;;
66384;SDS011;53426;55.872;37.462;2023-04-25T01:04:58;12.65;;;7.05;;
66384;SDS011;53426;55.872;37.462;2023-04-25T01:07:24;12.00;;;5.75;;
66384;SDS011;53426;55.872;37.462;2023-04-25T01:09:51;19.15;;;6.28;;
66384;SDS011;53426;55.872;37.462;2023-04-25T01:12:17;11.25;;;5.75;;
66384;SDS011;53426;55.872;37.462;2023-04-25T01:14:43;13.63;;;5.70;;
66384;SDS011;53426;55.872;37.462;2023-04-25T01:17:11;10.07;;;5.65;;
66384;SDS011;53426;55.872;37.462;2023-04-25T01:19:37;15.15;;;6.75;;
66384;SDS011;53426;55.872;37.462;2023-04-25T01:22:03;13.00;;;6.32;;
66384;SDS011;53426;55.872;37.462;2023-04-25T01:24:31;9.25;;;5.35;;
66384;SDS011;53426;55.872;37.462;2023-04-25T01:26:58;12.90;;;5.68;;
66384;SDS011;53426;55.872;37.462;2023-04-25T01:29:26;11.25;;;5.55;;
66384;SDS011;53426;55.872;37.462;2023-04-25T01:31:53;15.18;;;5.75;;
66384;SDS011;53426;55.872;37.462;2023-04-25T01:34:19;12.05;;;5.45;;
66384;SDS011;53426;55.872;37.462;2023-04-25T01:36:47;17.08;;;5.45;;
66384;SDS011;53426;55.872;37.462;2023-04-25T01:39:16;16.05;;;6.65;;
66384;SDS011;53426;55.872;37.462;2023-04-25T01:41:44;15.13;;;5.53;;
66384;SDS011;53426;55.872;37.462;2023-04-25T01:44:12;9.27;;;5.38;;
66384;SDS011;53426;55.872;37.462;2023-04-25T01:46:38;14.27;;;6.03;;
66384;SDS011;53426;55.872;37.462;2023-04-25T01:49:04;11.50;;;6.05;;
66384;SDS011;53426;55.872;37.462;2023-04-25T01:51:31;10.50;;;5.43;;
66384;SDS011;53426;55.872;37.462;2023-04-25T01:53:58;24.73;;;5.70;;
66384;SDS011;53426;55.872;37.462;2023-04-25T01:56:24;8.70;;;5.57;;
66384;SDS011;53426;55.872;37.462;2023-04-25T01:58:51;12.75;;;5.85;;
66384;SDS011;53426;55.872;37.462;2023-04-25T02:01:17;14.60;;;6.50;;
66384;SDS011;53426;55.872;37.462;2023-04-25T02:03:51;8.10;;;5.40;;
66384;SDS011;53426;55.872;37.462;2023-04-25T02:06:23;11.15;;;5.70;;
66384;SDS011;53426;55.872;37.462;2023-04-25T02:08:52;13.15;;;5.32;;
66384;SDS011;53426;55.872;37.462;2023-04-25T02:11:17;11.25;;;5.28;;
66384;SDS011;53426;55.872;37.462;2023-04-25T02:13:55;7.47;;;5.93;;
66384;SDS011;53426;55.872;37.462;2023-04-25T02:16:33;21.02;;;5.82;;
66384;SDS011;53426;55.872;37.462;2023-04-25T02:19:00;13.93;;;6.03;;
66384;SDS011;53426;55.872;37.462;2023-04-25T02:21:26;9.18;;;5.65;;
66384;SDS011;53426;55.872;37.462;2023-04-25T02:23:52;12.40;;;5.72;;
66384;SDS011;53426;55.872;37.462;2023-04-25T02:26:18;10.18;;;5.70;;
66384;SDS011;53426;55.872;37.462;2023-04-25T02:28:43;17.75;;;6.50;;
66384;SDS011;53426;55.872;37.462;2023-04-25T02:31:09;22.35;;;6.05;;
66384;SDS011;53426;55.872;37.462;2023-04-25T02:33:36;13.75;;;5.75;;
66384;SDS011;53426;55.872;37.462;2023-04-25T02:36:04;16.58;;;5.68;;
66384;SDS011;53426;55.872;37.462;2023-04-25T02:38:30;11.95;;;6.07;;
66384;SDS011;53426;55.872;37.462;2023-04-25T02:40:56;15.45;;;5.95;;
66384;SDS011;53426;55.872;37.462;2023-04-25T02:43:25;19.80;;;6.10;;
66384;SDS011;53426;55.872;37.462;2023-04-25T02:45:51;17.27;;;5.35;;
66384;SDS011;53426;55.872;37.462;2023-04-25T02:48:17;19.73;;;6.20;;
66384;SDS011;53426;55.872;37.462;2023-04-25T02:50:43;15.55;;;6.22;;
66384;SDS011;53426;55.872;37.462;2023-04-25T02:53:09;17.00;;;6.80;;
66384;SDS011;53426;55.872;37.462;2023-04-25T02:55:43;12.52;;;6.05;;
66384;SDS011;53426;55.872;37.462;2023-04-25T02:58:08;7.22;;;5.63;;
66384;SDS011;53426;55.872;37.462;2023-04-25T03:00:45;11.48;;;5.45;;
66384;SDS011;53426;55.872;37.462;2023-04-25T03:03:11;13.55;;;5.38;;
66384;SDS011;53426;55.872;37.462;2023-04-25T03:05:37;16.45;;;5.25;;
66384;SDS011;53426;55.872;37.462;2023-04-25T03:08:04;19.30;;;5.30;;
66384;SDS011;53426;55.872;37.462;2023-04-25T03:10:32;9.57;;;5.00;;
66384;SDS011;53426;55.872;37.462;2023-04-25T03:13:02;9.27;;;5.30;;
66384;SDS011;53426;55.872;37.462;2023-04-25T03:15:29;9.32;;;5.18;;
66384;SDS011;53426;55.872;37.462;2023-04-25T03:17:56;11.52;;;5.80;;
66384;SDS011;53426;55.872;37.462;2023-04-25T03:20:23;12.50;;;5.80;;
66384;SDS011;53426;55.872;37.462;2023-04-25T03:22:49;18.98;;;6.07;;
66384;SDS011;53426;55.872;37.462;2023-04-25T03:25:15;8.13;;;6.30;;
66384;SDS011;53426;55.872;37.462;2023-04-25T03:27:42;19.65;;;6.30;;
66384;SDS011;53426;55.872;37.462;2023-04-25T03:30:08;23.85;;;5.80;;
66384;SDS011;53426;55.872;37.462;2023-04-25T03:32:35;22.40;;;6.65;;
66384;SDS011;53426;55.872;37.462;2023-04-25T03:35:01;10.15;;;5.82;;
66384;SDS011;53426;55.872;37.462;2023-04-25T03:37:31;9.57;;;5.47;;
66384;SDS011;53426;55.872;37.462;2023-04-25T03:39:57;8.77;;;5.75;;
66384;SDS011;53426;55.872;37.462;2023-04-25T03:42:29;14.65;;;5.78;;
66384;SDS011;53426;55.872;37.462;2023-04-25T03:44:55;16.35;;;5.80;;
66384;SDS011;53426;55.872;37.462;2023-04-25T03:47:21;21.58;;;6.90;;
66384;SDS011;53426;55.872;37.462;2023-04-25T03:49:48;12.25;;;5.70;;
66384;SDS011;53426;55.872;37.462;2023-04-25T03:52:18;14.43;;;4.97;;
66384;SDS011;53426;55.872;37.462;2023-04-25T03:54:45;12.55;;;5.72;;
66384;SDS011;53426;55.872;37.462;2023-04-25T03:57:17;15.70;;;6.15;;
66384;SDS011;53426;55.872;37.462;2023-04-25T03:59:43;14.32;;;6.07;;
66384;SDS011;53426;55.872;37.462;2023-04-25T04:02:12;11.55;;;5.35;;
66384;SDS011;53426;55.872;37.462;2023-04-25T04:04:39;18.73;;;6.43;;
66384;SDS011;53426;55.872;37.462;2023-04-25T04:07:05;10.45;;;5.88;;
66384;SDS011;53426;55.872;37.462;2023-04-25T04:09:35;16.35;;;5.15;;
66384;SDS011;53426;55.872;37.462;2023-04-25T04:12:06;23.08;;;4.82;;
66384;SDS011;53426;55.872;37.462;2023-04-25T04:14:33;9.65;;;5.30;;
66384;SDS011;53426;55.872;37.462;2023-04-25T04:16:58;11.43;;;5.53;;
66384;SDS011;53426;55.872;37.462;2023-04-25T04:19:25;13.02;;;4.82;;
66384;SDS011;53426;55.872;37.462;2023-04-25T04:22:31;14.30;;;5.28;;
66384;SDS011;53426;55.872;37.462;2023-04-25T04:25:01;13.07;;;4.85;;
66384;SDS011;53426;55.872;37.462;2023-04-25T04:28:00;9.73;;;5.05;;
66384;SDS011;53426;55.872;37.462;2023-04-25T04:30:35;8.27;;;5.28;;
66384;SDS011;53426;55.872;37.462;2023-04-25T04:33:05;14.73;;;4.72;;
66384;SDS011;53426;55.872;37.462;2023-04-25T04:35:33;8.98;;;4.45;;
66384;SDS011;53426;55.872;37.462;2023-04-25T04:37:59;10.07;;;4.80;;
66384;SDS011;53426;55.872;37.462;2023-04-25T04:40:30;15.38;;;5.15;;
66384;SDS011;53426;55.872;37.462;2023-04-25T04:43:17;13.82;;;5.65;;
66384;SDS011;53426;55.872;37.462;2023-04-25T04:45:50;15.98;;;5.70;;
66384;SDS011;53426;55.872;37.462;2023-04-25T04:48:36;6.80;;;5.22;;
66384;SDS011;53426;55.872;37.462;2023-04-25T04:51:22;22.20;;;5.68;;
66384;SDS011;53426;55.872;37.462;2023-04-25T04:54:05;10.23;;;5.20;;
66384;SDS011;53426;55.872;37.462;2023-04-25T04:56:43;35.25;;;7.40;;
66384;SDS011;53426;55.872;37.462;2023-04-25T04:59:53;16.02;;;7.10;;
66384;SDS011;53426;55.872;37.462;2023-04-25T05:05:58;18.13;;;7.50;;
66384;SDS011;53426;55.872;37.462;2023-04-25T05:09:15;23.02;;;9.93;;
66384;SDS011;53426;55.872;37.462;2023-04-25T05:12:19;31.27;;;9.48;;
66384;SDS011;53426;55.872;37.462;2023-04-25T05:15:16;18.42;;;8.32;;
66384;SDS011;53426;55.872;37.462;2023-04-25T05:18:31;19.33;;;8.23;;
66384;SDS011;53426;55.872;37.462;2023-04-25T05:21:17;25.90;;;11.27;;
66384;SDS011;53426;55.872;37.462;2023-04-25T05:24:09;17.50;;;9.25;;
66384;SDS011;53426;55.872;37.462;2023-04-25T05:29:43;18.77;;;8.05;;
66384;SDS011;53426;55.872;37.462;2023-04-25T05:32:33;21.70;;;7.80;;
66384;SDS011;53426;55.872;37.462;2023-04-25T05:35:07;22.13;;;8.13;;
66384;SDS011;53426;55.872;37.462;2023-04-25T05:37:41;18.58;;;8.55;;
66384;SDS011;53426;55.872;37.462;2023-04-25T05:40:12;17.45;;;8.35;;
66384;SDS011;53426;55.872;37.462;2023-04-25T05:42:50;19.67;;;8.15;;
66384;SDS011;53426;55.872;37.462;2023-04-25T05:45:19;18.42;;;8.05;;
66384;SDS011;53426;55.872;37.462;2023-04-25T05:48:03;22.15;;;7.88;;
66384;SDS011;53426;55.872;37.462;2023-04-25T05:50:41;16.85;;;8.02;;
66384;SDS011;53426;55.872;37.462;2023-04-25T05:53:24;16.38;;;8.93;;
66384;SDS011;53426;55.872;37.462;2023-04-25T05:55:59;18.63;;;8.55;;
66384;SDS011;53426;55.872;37.462;2023-04-25T05:58:26;20.92;;;8.00;;
66384;SDS011;53426;55.872;37.462;2023-04-25T06:04:38;13.02;;;7.47;;
66384;SDS011;53426;55.872;37.462;2023-04-25T06:07:04;28.23;;;7.07;;
66384;SDS011;53426;55.872;37.462;2023-04-25T06:09:38;18.85;;;6.25;;
66384;SDS011;53426;55.872;37.462;2023-04-25T06:12:20;15.93;;;6.10;;
66384;SDS011;53426;55.872;37.462;2023-04-25T06:14:48;18.15;;;6.90;;
66384;SDS011;53426;55.872;37.462;2023-04-25T06:17:16;16.58;;;6.40;;
66384;SDS011;53426;55.872;37.462;2023-04-25T06:19:42;13.38;;;6.05;;
66384;SDS011;53426;55.872;37.462;2023-04-25T06:22:13;16.58;;;5.57;;
66384;SDS011;53426;55.872;37.462;2023-04-25T06:24:41;6.97;;;5.60;;
66384;SDS011;53426;55.872;37.462;2023-04-25T06:27:07;10.77;;;5.28;;
66384;SDS011;53426;55.872;37.462;2023-04-25T06:29:33;9.45;;;5.07;;
66384;SDS011;53426;55.872;37.462;2023-04-25T06:31:59;14.60;;;5.60;;
66384;SDS011;53426;55.872;37.462;2023-04-25T06:34:34;10.25;;;5.50;;
66384;SDS011;53426;55.872;37.462;2023-04-25T06:37:01;11.25;;;5.53;;
66384;SDS011;53426;55.872;37.462;2023-04-25T06:39:27;17.10;;;5.45;;
66384;SDS011;53426;55.872;37.462;2023-04-25T06:41:54;14.63;;;6.05;;
66384;SDS011;53426;55.872;37.462;2023-04-25T06:44:45;13.52;;;4.57;;
66384;SDS011;53426;55.872;37.462;2023-04-25T06:47:12;15.75;;;4.90;;
66384;SDS011;53426;55.872;37.462;2023-04-25T06:49:39;6.28;;;4.45;;
66384;SDS011;53426;55.872;37.462;2023-04-25T06:52:05;18.10;;;5.30;;
66384;SDS011;53426;55.872;37.462;2023-04-25T06:54:31;10.05;;;5.07;;
66384;SDS011;53426;55.872;37.462;2023-04-25T06:57:15;11.27;;;5.07;;
66384;SDS011;53426;55.872;37.462;2023-04-25T06:59:42;8.30;;;4.57;;
66384;SDS011;53426;55.872;37.462;2023-04-25T07:02:08;9.45;;;4.35;;
66384;SDS011;53426;55.872;37.462;2023-04-25T07:04:34;10.98;;;4.68;;
66384;SDS011;53426;55.872;37.462;2023-04-25T07:07:01;12.93;;;4.50;;
66384;SDS011;53426;55.872;37.462;2023-04-25T07:09:36;10.10;;;4.70;;
66384;SDS011;53426;55.872;37.462;2023-04-25T07:12:03;14.18;;;5.13;;
66384;SDS011;53426;55.872;37.462;2023-04-25T07:14:30;10.60;;;4.13;;
66384;SDS011;53426;55.872;37.462;2023-04-25T07:16:56;8.30;;;4.60;;
66384;SDS011;53426;55.872;37.462;2023-04-25T07:19:24;12.30;;;4.38;;
66384;SDS011;53426;55.872;37.462;2023-04-25T07:21:54;6.65;;;4.30;;
66384;SDS011;53426;55.872;37.462;2023-04-25T07:24:23;7.30;;;4.15;;
66384;SDS011;53426;55.872;37.462;2023-04-25T07:26:50;10.68;;;4.40;;
66384;SDS011;53426;55.872;37.462;2023-04-25T07:29:41;12.80;;;4.25;;
66384;SDS011;53426;55.872;37.462;2023-04-25T07:32:07;15.63;;;4.70;;
66384;SDS011;53426;55.872;37.462;2023-04-25T07:38:33;10.85;;;4.70;;
66384;SDS011;53426;55.872;37.462;2023-04-25T07:41:03;13.43;;;4.20;;
66384;SDS011;53426;55.872;37.462;2023-04-25T07:46:41;16.52;;;5.07;;
66384;SDS011;53426;55.872;37.462;2023-04-25T07:49:08;7.07;;;4.45;;
66384;SDS011;53426;55.872;37.462;2023-04-25T07:51:34;16.55;;;4.90;;
66384;SDS011;53426;55.872;37.462;2023-04-25T07:54:06;5.75;;;4.40;;
66384;SDS011;53426;55.872;37.462;2023-04-25T07:56:35;14.90;;;5.32;;
66384;SDS011;53426;55.872;37.462;2023-04-25T07:59:01;16.98;;;5.03;;
66384;SDS011;53426;55.872;37.462;2023-04-25T08:01:27;11.88;;;4.38;;
66384;SDS011;53426;55.872;37.462;2023-04-25T08:03:59;13.40;;;4.32;;
66384;SDS011;53426;55.872;37.462;2023-04-25T08:06:54;13.38;;;4.35;;
66384;SDS011;53426;55.872;37.462;2023-04-25T08:09:24;11.23;;;4.38;;
66384;SDS011;53426;55.872;37.462;2023-04-25T08:11:52;6.97;;;4.25;;
66384;SDS011;53426;55.872;37.462;2023-04-25T08:14:23;15.10;;;4.70;;
66384;SDS011;53426;55.872;37.462;2023-04-25T08:16:48;8.63;;;4.53;;
66384;SDS011;53426;55.872;37.462;2023-04-25T08:19:15;18.38;;;5.05;;
66384;SDS011;53426;55.872;37.462;2023-04-25T08:21:41;14.27;;;4.60;;
66384;SDS011;53426;55.872;37.462;2023-04-25T08:24:11;19.13;;;4.63;;
66384;SDS011;53426;55.872;37.462;2023-04-25T08:26:39;9.15;;;4.13;;
66384;SDS011;53426;55.872;37.462;2023-04-25T08:29:07;15.13;;;4.38;;
66384;SDS011;53426;55.872;37.462;2023-04-25T08:31:36;21.50;;;4.68;;
66384;SDS011;53426;55.872;37.462;2023-04-25T08:34:04;11.18;;;4.05;;
66384;SDS011;53426;55.872;37.462;2023-04-25T08:36:37;12.33;;;4.17;;
66384;SDS011;53426;55.872;37.462;2023-04-25T08:39:04;13.73;;;4.15;;
66384;SDS011;53426;55.872;37.462;2023-04-25T08:41:36;13.63;;;4.95;;
66384;SDS011;53426;55.872;37.462;2023-04-25T08:44:04;12.50;;;5.03;;
66384;SDS011;53426;55.872;37.462;2023-04-25T08:46:32;15.80;;;4.50;;
66384;SDS011;53426;55.872;37.462;2023-04-25T08:49:19;17.88;;;4.28;;
66384;SDS011;53426;55.872;37.462;2023-04-25T08:51:46;19.05;;;5.05;;
66384;SDS011;53426;55.872;37.462;2023-04-25T08:54:14;16.95;;;4.93;;
66384;SDS011;53426;55.872;37.462;2023-04-25T08:56:41;16.90;;;5.00;;
66384;SDS011;53426;55.872;37.462;2023-04-25T08:59:12;8.57;;;4.70;;
66384;SDS011;53426;55.872;37.462;2023-04-25T09:01:39;7.82;;;4.90;;
66384;SDS011;53426;55.872;37.462;2023-04-25T09:04:05;13.60;;;4.78;;
66384;SDS011;53426;55.872;37.462;2023-04-25T09:06:33;12.68;;;5.03;;
66384;SDS011;53426;55.872;37.462;2023-04-25T09:09:05;11.65;;;4.97;;
66384;SDS011;53426;55.872;37.462;2023-04-25T09:11:33;13.30;;;4.78;;
66384;SDS011;53426;55.872;37.462;2023-04-25T09:14:18;14.38;;;4.78;;
66384;SDS011;53426;55.872;37.462;2023-04-25T09:16:59;12.07;;;4.35;;
66384;SDS011;53426;55.872;37.462;2023-04-25T09:19:36;9.13;;;4.15;;
66384;SDS011;53426;55.872;37.462;2023-04-25T09:22:11;11.57;;;4.28;;
66384;SDS011;53426;55.872;37.462;2023-04-25T09:24:44;14.57;;;4.55;;
66384;SDS011;53426;55.872;37.462;2023-04-25T09:27:12;9.30;;;4.53;;
66384;SDS011;53426;55.872;37.462;2023-04-25T09:29:57;9.82;;;4.55;;
66384;SDS011;53426;55.872;37.462;2023-04-25T09:32:31;12.45;;;4.50;;
66384;SDS011;53426;55.872;37.462;2023-04-25T09:35:00;7.88;;;3.90;;
66384;SDS011;53426;55.872;37.462;2023-04-25T09:37:30;7.53;;;4.00;;
66384;SDS011;53426;55.872;37.462;2023-04-25T09:40:06;17.70;;;4.43;;
66384;SDS011;53426;55.872;37.462;2023-04-25T09:42:41;7.53;;;3.72;;
66384;SDS011;53426;55.872;37.462;2023-04-25T09:45:07;11.68;;;4.10;;
66384;SDS011;53426;55.872;37.462;2023-04-25T09:47:38;8.93;;;3.95;;
66384;SDS011;53426;55.872;37.462;2023-04-25T09:50:14;7.57;;;3.70;;
66384;SDS011;53426;55.872;37.462;2023-04-25T09:52:43;14.25;;;4.70;;
66384;SDS011;53426;55.872;37.462;2023-04-25T09:55:20;13.77;;;4.55;;
66384;SDS011;53426;55.872;37.462;2023-04-25T09:57:46;11.00;;;3.65;;
66384;SDS011;53426;55.872;37.462;2023-04-25T10:00:17;13.30;;;4.03;;
66384;SDS011;53426;55.872;37.462;2023-04-25T10:02:45;7.97;;;3.92;;
66384;SDS011;53426;55.872;37.462;2023-04-25T10:05:39;8.00;;;3.90;;
66384;SDS011;53426;55.872;37.462;2023-04-25T10:11:20;5.85;;;3.33;;
66384;SDS011;53426;55.872;37.462;2023-04-25T10:13:48;4.80;;;3.10;;
66384;SDS011;53426;55.872;37.462;2023-04-25T10:16:14;9.32;;;3.90;;
66384;SDS011;53426;55.872;37.462;2023-04-25T10:18:41;5.57;;;3.83;;
66384;SDS011;53426;55.872;37.462;2023-04-25T10:21:07;14.20;;;4.22;;
66384;SDS011;53426;55.872;37.462;2023-04-25T10:23:33;9.98;;;4.55;;
66384;SDS011;53426;55.872;37.462;2023-04-25T10:26:00;15.15;;;5.22;;
66384;SDS011;53426;55.872;37.462;2023-04-25T10:31:23;9.85;;;4.47;;
66384;SDS011;53426;55.872;37.462;2023-04-25T10:33:49;10.98;;;5.00;;
66384;SDS011;53426;55.872;37.462;2023-04-25T10:36:17;6.90;;;4.32;;
66384;SDS011;53426;55.872;37.462;2023-04-25T10:38:44;7.53;;;4.00;;
66384;SDS011;53426;55.872;37.462;2023-04-25T10:41:11;7.72;;;4.25;;
66384;SDS011;53426;55.872;37.462;2023-04-25T10:43:45;8.02;;;4.50;;
66384;SDS011;53426;55.872;37.462;2023-04-25T10:46:22;14.25;;;4.15;;
66384;SDS011;53426;55.872;37.462;2023-04-25T10:49:00;15.75;;;4.28;;
66384;SDS011;53426;55.872;37.462;2023-04-25T10:51:30;8.43;;;4.20;;
66384;SDS011;53426;55.872;37.462;2023-04-25T10:53:58;9.75;;;3.88;;
66384;SDS011;53426;55.872;37.462;2023-04-25T10:56:25;12.43;;;4.57;;
66384;SDS011;53426;55.872;37.462;2023-04-25T10:59:02;13.40;;;4.43;;
66384;SDS011;53426;55.872;37.462;2023-04-25T11:01:42;9.95;;;4.35;;
66384;SDS011;53426;55.872;37.462;2023-04-25T11:04:31;8.57;;;4.15;;
66384;SDS011;53426;55.872;37.462;2023-04-25T11:07:02;5.47;;;3.53;;
66384;SDS011;53426;55.872;37.462;2023-04-25T11:09:35;12.23;;;3.90;;
66384;SDS011;53426;55.872;37.462;2023-04-25T11:14:36;4.93;;;3.80;;
66384;SDS011;53426;55.872;37.462;2023-04-25T11:17:02;11.13;;;3.78;;
66384;SDS011;53426;55.872;37.462;2023-04-25T11:19:29;13.60;;;3.85;;
66384;SDS011;53426;55.872;37.462;2023-04-25T11:21:56;10.50;;;4.20;;
66384;SDS011;53426;55.872;37.462;2023-04-25T11:24:29;10.70;;;3.80;;
66384;SDS011;53426;55.872;37.462;2023-04-25T11:26:57;5.82;;;3.72;;
66384;SDS011;53426;55.872;37.462;2023-04-25T11:29:31;8.38;;;3.53;;
66384;SDS011;53426;55.872;37.462;2023-04-25T11:31:59;5.75;;;3.72;;
66384;SDS011;53426;55.872;37.462;2023-04-25T11:34:31;7.30;;;3.67;;
66384;SDS011;53426;55.872;37.462;2023-04-25T11:37:05;5.03;;;3.83;;
66384;SDS011;53426;55.872;37.462;2023-04-25T11:39:32;7.97;;;4.20;;
66384;SDS011;53426;55.872;37.462;2023-04-25T11:41:58;3.97;;;3.58;;
66384;SDS011;53426;55.872;37.462;2023-04-25T11:44:24;3.90;;;3.50;;
66384;SDS011;53426;55.872;37.462;2023-04-25T11:46:50;5.43;;;3.60;;
66384;SDS011;53426;55.872;37.462;2023-04-25T11:49:16;10.18;;;3.00;;
66384;SDS011;53426;55.872;37.462;2023-04-25T11:51:45;4.82;;;3.10;;
66384;SDS011;53426;55.872;37.462;2023-04-25T11:54:13;6.10;;;3.15;;
66384;SDS011;53426;55.872;37.462;2023-04-25T11:56:40;7.65;;;3.30;;
66384;SDS011;53426;55.872;37.462;2023-04-25T11:59:08;9.05;;;3.17;;
66384;SDS011;53426;55.872;37.462;2023-04-25T12:01:35;4.90;;;3.13;;
66384;SDS011;53426;55.872;37.462;2023-04-25T12:04:13;5.80;;;3.33;;
66384;SDS011;53426;55.872;37.462;2023-04-25T12:06:44;8.55;;;3.10;;
66384;SDS011;53426;55.872;37.462;2023-04-25T12:09:15;6.93;;;2.67;;
66384;SDS011;53426;55.872;37.462;2023-04-25T12:12:01;5.65;;;2.80;;
66384;SDS011;53426;55.872;37.462;2023-04-25T12:14:31;3.60;;;2.47;;
66384;SDS011;53426;55.872;37.462;2023-04-25T12:17:02;10.23;;;2.92;;
66384;SDS011;53426;55.872;37.462;2023-04-25T12:19:36;3.38;;;2.75;;
66384;SDS011;53426;55.872;37.462;2023-04-25T12:22:18;5.43;;;2.97;;
66384;SDS011;53426;55.872;37.462;2023-04-25T12:24:46;6.70;;;2.85;;
66384;SDS011;53426;55.872;37.462;2023-04-25T12:27:14;6.05;;;3.25;;
66384;SDS011;53426;55.872;37.462;2023-04-25T12:29:52;6.03;;;2.63;;
66384;SDS011;53426;55.872;37.462;2023-04-25T12:32:20;11.00;;;3.40;;
66384;SDS011;53426;55.872;37.462;2023-04-25T12:34:48;8.95;;;3.17;;
66384;SDS011;53426;55.872;37.462;2023-04-25T12:37:14;7.47;;;2.97;;
66384;SDS011;53426;55.872;37.462;2023-04-25T12:39:40;6.63;;;2.75;;
66384;SDS011;53426;55.872;37.462;2023-04-25T12:42:07;3.53;;;2.55;;
66384;SDS011;53426;55.872;37.462;2023-04-25T12:44:34;8.10;;;2.55;;
66384;SDS011;53426;55.872;37.462;2023-04-25T12:47:00;7.07;;;3.05;;
66384;SDS011;53426;55.872;37.462;2023-04-25T12:49:26;7.10;;;3.13;;
66384;SDS011;53426;55.872;37.462;2023-04-25T12:51:54;4.05;;;2.70;;
66384;SDS011;53426;55.872;37.462;2023-04-25T12:54:21;3.00;;;2.50;;
66384;SDS011;53426;55.872;37.462;2023-04-25T12:56:46;9.80;;;3.05;;
66384;SDS011;53426;55.872;37.462;2023-04-25T12:59:13;3.38;;;3.08;;
66384;SDS011;53426;55.872;37.462;2023-04-25T13:01:39;12.98;;;3.30;;
66384;SDS011;53426;55.872;37.462;2023-04-25T13:04:05;6.13;;;2.90;;
66384;SDS011;53426;55.872;37.462;2023-04-25T13:06:31;6.88;;;3.20;;
66384;SDS011;53426;55.872;37.462;2023-04-25T13:08:57;7.45;;;3.00;;
66384;SDS011;53426;55.872;37.462;2023-04-25T13:11:23;8.43;;;2.95;;
66384;SDS011;53426;55.872;37.462;2023-04-25T13:13:50;5.45;;;3.20;;
66384;SDS011;53426;55.872;37.462;2023-04-25T13:16:16;6.35;;;3.10;;
66384;SDS011;53426;55.872;37.462;2023-04-25T13:18:44;8.15;;;2.50;;
66384;SDS011;53426;55.872;37.462;2023-04-25T13:21:09;4.07;;;2.55;;
66384;SDS011;53426;55.872;37.462;2023-04-25T13:23:38;7.55;;;3.08;;
66384;SDS011;53426;55.872;37.462;2023-04-25T13:26:06;6.00;;;3.10;;
66384;SDS011;53426;55.872;37.462;2023-04-25T13:28:32;10.77;;;3.15;;
66384;SDS011;53426;55.872;37.462;2023-04-25T13:31:07;5.80;;;3.00;;
66384;SDS011;53426;55.872;37.462;2023-04-25T13:33:33;10.30;;;3.00;;
66384;SDS011;53426;55.872;37.462;2023-04-25T13:36:00;6.88;;;3.10;;
66384;SDS011;53426;55.872;37.462;2023-04-25T13:38:26;3.33;;;2.80;;
66384;SDS011;53426;55.872;37.462;2023-04-25T13:40:52;6.15;;;2.75;;
66384;SDS011;53426;55.872;37.462;2023-04-25T13:43:21;3.97;;;2.78;;
66384;SDS011;53426;55.872;37.462;2023-04-25T13:45:48;5.35;;;3.28;;
66384;SDS011;53426;55.872;37.462;2023-04-25T13:48:15;7.07;;;3.15;;
66384;SDS011;53426;55.872;37.462;2023-04-25T13:50:41;10.52;;;3.25;;
66384;SDS011;53426;55.872;37.462;2023-04-25T13:53:08;6.85;;;2.85;;
66384;SDS011;53426;55.872;37.462;2023-04-25T13:55:34;8.10;;;3.80;;
66384;SDS011;53426;55.872;37.462;2023-04-25T13:58:04;11.18;;;3.67;;
66384;SDS011;53426;55.872;37.462;2023-04-25T14:00:35;9.45;;;3.63;;
66384;SDS011;53426;55.872;37.462;2023-04-25T14:03:07;9.15;;;3.75;;
66384;SDS011;53426;55.872;37.462;2023-04-25T14:05:33;6.47;;;3.63;;
66384;SDS011;53426;55.872;37.462;2023-04-25T14:08:05;3.60;;;3.30;;
66384;SDS011;53426;55.872;37.462;2023-04-25T14:10:34;6.72;;;3.78;;
66384;SDS011;53426;55.872;37.462;2023-04-25T14:13:00;7.20;;;3.80;;
66384;SDS011;53426;55.872;37.462;2023-04-25T14:15:28;6.60;;;3.35;;
66384;SDS011;53426;55.872;37.462;2023-04-25T14:17:55;11.18;;;3.50;;
66384;SDS011;53426;55.872;37.462;2023-04-25T14:20:21;5.50;;;3.55;;
66384;SDS011;53426;55.872;37.462;2023-04-25T14:22:49;12.20;;;3.95;;
66384;SDS011;53426;55.872;37.462;2023-04-25T14:25:15;8.65;;;3.75;;
66384;SDS011;53426;55.872;37.462;2023-04-25T14:27:41;4.47;;;3.55;;
66384;SDS011;53426;55.872;37.462;2023-04-25T14:30:07;6.97;;;3.70;;
66384;SDS011;53426;55.872;37.462;2023-04-25T14:32:34;4.47;;;3.58;;
66384;SDS011;53426;55.872;37.462;2023-04-25T14:35:00;6.35;;;3.33;;
66384;SDS011;53426;55.872;37.462;2023-04-25T14:37:29;4.90;;;3.42;;
66384;SDS011;53426;55.872;37.462;2023-04-25T14:39:58;6.47;;;4.15;;
66384;SDS011;53426;55.872;37.462;2023-04-25T14:42:24;6.15;;;3.72;;
66384;SDS011;53426;55.872;37.462;2023-04-25T14:44:51;11.35;;;6.45;;
66384;SDS011;53426;55.872;37.462;2023-04-25T14:47:17;10.13;;;3.92;;
66384;SDS011;53426;55.872;37.462;2023-04-25T14:49:43;7.22;;;3.40;;
66384;SDS011;53426;55.872;37.462;2023-04-25T14:52:12;3.97;;;3.63;;
66384;SDS011;53426;55.872;37.462;2023-04-25T14:54:37;6.60;;;3.78;;
66384;SDS011;53426;55.872;37.462;2023-04-25T14:57:03;5.63;;;3.25;;
66384;SDS011;53426;55.872;37.462;2023-04-25T14:59:29;9.05;;;4.63;;
66384;SDS011;53426;55.872;37.462;2023-04-25T15:01:55;12.38;;;4.13;;
66384;SDS011;53426;55.872;37.462;2023-04-25T15:04:22;9.20;;;3.90;;
66384;SDS011;53426;55.872;37.462;2023-04-25T15:06:48;4.07;;;3.67;;
66384;SDS011;53426;55.872;37.462;2023-04-25T15:09:13;4.60;;;3.88;;